createdAt,value
2022-09-01T00:00:18.700Z,99.90
2022-09-01T00:02:47.946Z,99.90
2022-09-01T00:05:17.201Z,99.90
2022-09-01T00:07:48.500Z,99.90
2022-09-01T00:10:18.250Z,99.90
2022-09-01T00:12:47.433Z,99.90
2022-09-01T00:15:17.304Z,99.90
2022-09-01T00:17:46.469Z,99.90
2022-09-01T00:20:20.099Z,99.90
2022-09-01T00:22:51.169Z,99.90
2022-09-01T00:25:21.492Z,99.90
2022-09-01T00:27:51.603Z,99.90
2022-09-01T00:30:22.428Z,99.90
2022-09-01T00:32:51.585Z,99.90
2022-09-01T00:35:21.911Z,99.90
2022-09-01T00:37:52.283Z,99.90
2022-09-01T00:40:21.833Z,99.90
2022-09-01T00:42:51.108Z,99.90
2022-09-01T00:45:22.327Z,99.90
2022-09-01T00:47:52.203Z,99.90
2022-09-01T00:50:23.102Z,99.90
2022-09-01T00:52:57.524Z,99.90
2022-09-01T00:55:36.164Z,99.90
2022-09-01T00:58:19.607Z,99.90
2022-09-01T01:00:51.921Z,99.90
2022-09-01T01:03:21.409Z,99.90
2022-09-01T01:05:57.998Z,99.90
2022-09-01T01:08:34.023Z,99.90
2022-09-01T01:11:06.211Z,99.90
2022-09-01T01:13:54.691Z,99.90
2022-09-01T01:16:27.387Z,99.90
2022-09-01T01:18:57.756Z,99.90
2022-09-01T01:21:54.026Z,99.90
2022-09-01T01:24:27.850Z,99.90
2022-09-01T01:27:00.045Z,99.90
2022-09-01T01:29:38.098Z,99.90
2022-09-01T01:32:13.168Z,99.90
2022-09-01T01:34:46.881Z,99.90
2022-09-01T01:37:18.765Z,99.90
2022-09-01T01:39:49.677Z,99.90
2022-09-01T01:42:20.153Z,99.90
2022-09-01T01:44:50.224Z,99.90
2022-09-01T01:47:20.479Z,99.90
2022-09-01T01:49:49.910Z,99.90
2022-09-01T01:52:20.739Z,99.90
2022-09-01T01:55:05.080Z,99.90
2022-09-01T01:57:36.699Z,99.90
2022-09-01T02:00:12.251Z,99.90
2022-09-01T02:02:41.959Z,99.90
2022-09-01T02:05:12.362Z,99.90
2022-09-01T02:07:42.863Z,99.90
2022-09-01T02:10:14.985Z,99.90
2022-09-01T02:12:44.598Z,99.90
2022-09-01T02:15:15.857Z,99.90
2022-09-01T02:17:46.063Z,99.90
2022-09-01T02:20:17.039Z,99.90
2022-09-01T02:22:46.888Z,99.90
2022-09-01T02:25:18.961Z,99.90
2022-09-01T02:27:55.643Z,99.90
2022-09-01T02:30:26.493Z,99.90
2022-09-01T02:32:56.091Z,99.90
2022-09-01T02:35:34.218Z,99.90
2022-09-01T02:38:04.991Z,99.90
2022-09-01T02:40:40.647Z,99.90
2022-09-01T02:43:11.879Z,99.90
2022-09-01T02:45:44.040Z,99.90
2022-09-01T02:48:14.375Z,99.90
2022-09-01T02:50:49.351Z,99.90
2022-09-01T02:53:19.852Z,99.90
2022-09-01T02:55:51.665Z,99.90
2022-09-01T02:58:21.491Z,99.90
2022-09-01T03:00:58.067Z,99.90
2022-09-01T03:03:28.678Z,99.90
2022-09-01T03:05:59.849Z,99.90
2022-09-01T03:08:34.316Z,99.90
2022-09-01T03:11:12.282Z,99.90
2022-09-01T03:13:44.586Z,99.90
2022-09-01T03:16:16.195Z,99.90
2022-09-01T03:18:47.592Z,99.90
2022-09-01T03:21:18.301Z,99.90
2022-09-01T03:23:51.235Z,99.90
2022-09-01T03:26:24.444Z,99.90
2022-09-01T03:28:56.133Z,99.90
2022-09-01T03:31:30.974Z,99.90
2022-09-01T03:34:05.985Z,99.90
2022-09-01T03:36:50.070Z,99.90
2022-09-01T03:39:24.407Z,99.90
2022-09-01T03:41:56.398Z,99.90
2022-09-01T03:44:26.490Z,99.90
2022-09-01T03:46:58.356Z,99.90
2022-09-01T03:49:28.566Z,99.90
2022-09-01T03:52:01.273Z,99.90
2022-09-01T03:54:33.025Z,99.90
2022-09-01T03:57:06.006Z,99.90
2022-09-01T04:02:30.657Z,99.90
2022-09-01T04:05:02.732Z,99.90
2022-09-01T04:07:36.131Z,99.90
2022-09-01T04:10:11.471Z,99.90
2022-09-01T04:12:42.491Z,99.90
2022-09-01T04:15:14.000Z,99.90
2022-09-01T04:18:03.173Z,99.90
2022-09-01T04:20:39.819Z,99.90
2022-09-01T04:23:10.974Z,99.90
2022-09-01T04:25:41.637Z,99.90
2022-09-01T04:28:22.992Z,99.90
2022-09-01T04:30:55.937Z,99.90
2022-09-01T04:33:39.519Z,99.90
2022-09-01T04:36:22.340Z,99.90
2022-09-01T04:38:57.609Z,99.90
2022-09-01T04:41:34.020Z,99.90
2022-09-01T04:44:10.453Z,99.90
2022-09-01T04:46:47.901Z,99.90
2022-09-01T04:49:22.349Z,99.90
2022-09-01T04:51:54.971Z,99.90
2022-09-01T04:54:27.473Z,99.90
2022-09-01T04:56:57.718Z,99.90
2022-09-01T04:59:30.925Z,99.90
2022-09-01T05:02:07.798Z,99.90
2022-09-01T05:04:46.281Z,99.90
2022-09-01T05:07:17.895Z,99.90
2022-09-01T05:09:49.016Z,99.90
2022-09-01T05:12:46.061Z,99.90
2022-09-01T05:15:17.983Z,99.90
2022-09-01T05:17:49.326Z,99.90
2022-09-01T05:20:20.709Z,99.90
2022-09-01T05:22:53.875Z,99.90
2022-09-01T05:25:24.575Z,99.90
2022-09-01T05:27:55.810Z,99.90
2022-09-01T05:30:28.659Z,99.90
2022-09-01T05:32:59.018Z,99.90
2022-09-01T05:35:33.121Z,99.90
2022-09-01T05:38:04.828Z,99.90
2022-09-01T05:40:37.270Z,99.90
2022-09-01T05:43:12.488Z,99.90
2022-09-01T05:46:05.718Z,99.90
2022-09-01T05:48:40.183Z,99.90
2022-09-01T05:51:40.248Z,99.90
2022-09-01T05:54:09.822Z,99.90
2022-09-01T05:56:44.782Z,99.90
2022-09-01T05:59:25.287Z,99.90
2022-09-01T06:02:02.773Z,99.90
2022-09-01T06:04:34.680Z,99.90
2022-09-01T06:07:11.872Z,99.90
2022-09-01T06:09:50.485Z,99.90
2022-09-01T06:12:28.084Z,99.90
2022-09-01T06:15:00.112Z,99.90
2022-09-01T06:17:33.932Z,99.90
2022-09-01T06:20:10.613Z,99.90
2022-09-01T06:22:45.382Z,99.90
2022-09-01T06:25:17.333Z,99.90
2022-09-01T06:27:50.081Z,99.90
2022-09-01T06:30:24.401Z,99.90
2022-09-01T06:33:16.905Z,99.90
2022-09-01T06:35:52.532Z,99.90
2022-09-01T06:38:27.060Z,99.90
2022-09-01T06:41:04.196Z,99.90
2022-09-01T06:43:35.077Z,99.90
2022-09-01T06:46:06.015Z,99.90
2022-09-01T06:48:38.661Z,99.90
2022-09-01T06:51:16.585Z,99.90
2022-09-01T06:53:53.138Z,99.90
2022-09-01T06:56:24.217Z,99.90
2022-09-01T06:58:56.813Z,99.90
2022-09-01T07:01:27.739Z,99.90
2022-09-01T07:04:00.000Z,99.90
2022-09-01T07:07:00.083Z,99.90
2022-09-01T07:10:06.029Z,99.90
2022-09-01T07:13:05.591Z,99.90
2022-09-01T07:18:31.778Z,99.90
2022-09-01T07:21:36.123Z,99.90
2022-09-01T07:24:13.190Z,99.90
2022-09-01T07:26:55.549Z,99.90
2022-09-01T07:29:25.785Z,99.90
2022-09-01T07:34:47.607Z,99.90
2022-09-01T07:43:33.460Z,99.90
2022-09-01T07:46:39.061Z,99.90
2022-09-01T07:49:30.099Z,99.90
2022-09-01T07:52:03.756Z,99.90
2022-09-01T07:54:37.490Z,99.90
2022-09-01T07:57:07.690Z,99.90
2022-09-01T07:59:39.190Z,99.90
2022-09-01T08:02:19.941Z,99.90
2022-09-01T08:04:50.518Z,99.90
2022-09-01T08:07:22.402Z,99.90
2022-09-01T08:09:56.110Z,99.90
2022-09-01T08:12:31.098Z,99.90
2022-09-01T08:17:52.274Z,99.90
2022-09-01T08:20:24.743Z,99.90
2022-09-01T08:22:57.943Z,99.90
2022-09-01T08:25:38.932Z,99.90
2022-09-01T08:28:09.742Z,99.90
2022-09-01T08:30:52.220Z,99.90
2022-09-01T08:33:26.068Z,99.90
2022-09-01T08:35:57.248Z,99.90
2022-09-01T08:38:29.173Z,99.90
2022-09-01T08:41:03.344Z,99.90
2022-09-01T08:44:01.530Z,99.90
2022-09-01T08:46:35.920Z,99.90
2022-09-01T08:49:30.716Z,99.90
2022-09-01T08:52:23.215Z,99.90
2022-09-01T08:54:59.841Z,99.90
2022-09-01T08:57:37.607Z,99.90
2022-09-01T09:00:25.951Z,99.90
2022-09-01T09:03:22.391Z,99.90
2022-09-01T09:06:11.857Z,99.90
2022-09-01T09:08:58.918Z,99.90
2022-09-01T09:12:02.590Z,99.90
2022-09-01T09:14:58.619Z,99.90
2022-09-01T09:17:35.457Z,99.90
2022-09-01T09:20:08.860Z,99.90
2022-09-01T09:22:38.899Z,99.90
2022-09-01T09:25:17.344Z,99.90
2022-09-01T09:28:00.969Z,99.90
2022-09-01T09:30:33.470Z,99.90
2022-09-01T09:33:48.556Z,99.90
2022-09-01T09:36:22.178Z,99.90
2022-09-01T09:39:11.481Z,99.90
2022-09-01T09:41:43.667Z,99.90
2022-09-01T09:44:27.180Z,99.90
2022-09-01T09:46:58.484Z,99.90
2022-09-01T09:49:36.685Z,99.90
2022-09-01T09:52:19.435Z,99.90
2022-09-01T09:55:05.699Z,99.90
2022-09-01T09:57:41.507Z,99.90
2022-09-01T10:00:24.481Z,99.90
2022-09-01T10:03:01.532Z,99.90
2022-09-01T10:05:44.110Z,99.90
2022-09-01T10:08:37.390Z,99.90
2022-09-01T10:11:09.496Z,99.90
2022-09-01T10:13:39.035Z,99.90
2022-09-01T10:16:25.105Z,99.90
2022-09-01T10:19:00.920Z,99.90
2022-09-01T10:21:37.842Z,99.90
2022-09-01T10:24:26.989Z,99.70
2022-09-01T10:27:13.934Z,99.10
2022-09-01T10:30:12.096Z,98.60
2022-09-01T10:32:52.513Z,98.40
2022-09-01T10:35:27.911Z,97.80
2022-09-01T10:38:00.402Z,98.40
2022-09-01T10:40:49.132Z,98.50
2022-09-01T10:43:51.352Z,99.80
2022-09-01T10:46:52.286Z,99.40
2022-09-01T10:50:07.698Z,98.70
2022-09-01T10:52:58.896Z,98.90
2022-09-01T10:55:37.415Z,99.30
2022-09-01T11:02:28.870Z,99.20
2022-09-01T11:05:18.758Z,99.50
2022-09-01T11:08:14.974Z,99.80
2022-09-01T11:10:56.078Z,99.00
2022-09-01T11:13:49.058Z,99.60
2022-09-01T11:16:52.993Z,99.00
2022-09-01T11:19:57.067Z,98.80
2022-09-01T11:22:38.467Z,98.10
2022-09-01T11:25:40.832Z,98.60
2022-09-01T11:28:43.024Z,98.80
2022-09-01T11:31:40.920Z,98.00
2022-09-01T11:34:19.497Z,97.60
2022-09-01T11:36:58.964Z,98.40
2022-09-01T11:39:42.332Z,99.00
2022-09-01T11:42:20.284Z,99.40
2022-09-01T11:44:57.669Z,99.30
2022-09-01T11:47:32.653Z,99.10
2022-09-01T11:50:06.399Z,99.30
2022-09-01T11:52:41.509Z,99.30
2022-09-01T11:55:13.633Z,98.50
2022-09-01T11:57:43.730Z,98.80
2022-09-01T12:00:26.137Z,98.50
2022-09-01T12:02:57.089Z,97.70
2022-09-01T12:05:34.187Z,97.40
2022-09-01T12:08:14.002Z,96.50
2022-09-01T12:10:45.354Z,96.80
2022-09-01T12:13:23.348Z,97.40
2022-09-01T12:16:17.574Z,97.50
2022-09-01T12:18:52.213Z,97.50
2022-09-01T12:21:26.876Z,97.30
2022-09-01T12:24:14.164Z,97.80
2022-09-01T12:26:46.388Z,97.80
2022-09-01T12:29:17.786Z,97.30
2022-09-01T12:31:52.473Z,97.30
2022-09-01T12:34:38.047Z,96.70
2022-09-01T12:37:12.335Z,96.80
2022-09-01T12:39:45.626Z,96.90
2022-09-01T12:42:40.922Z,97.10
2022-09-01T12:45:14.022Z,96.30
2022-09-01T12:47:53.007Z,96.10
2022-09-01T12:50:47.801Z,95.90
2022-09-01T12:53:32.431Z,95.90
2022-09-01T12:56:31.035Z,96.10
2022-09-01T12:59:15.548Z,95.80
2022-09-01T13:01:45.722Z,95.40
2022-09-01T13:04:27.443Z,95.50
2022-09-01T13:07:02.436Z,95.80
2022-09-01T13:09:31.908Z,96.10
2022-09-01T13:12:19.949Z,95.50
2022-09-01T13:14:51.352Z,95.20
2022-09-01T13:17:22.007Z,95.30
2022-09-01T13:19:51.381Z,95.00
2022-09-01T13:22:21.666Z,94.90
2022-09-01T13:24:51.118Z,94.80
2022-09-01T13:27:22.139Z,94.80
2022-09-01T13:29:53.544Z,95.10
2022-09-01T13:32:24.917Z,94.70
2022-09-01T13:34:55.762Z,94.00
2022-09-01T13:37:25.598Z,94.30
2022-09-01T13:39:55.020Z,94.40
2022-09-01T13:42:27.003Z,94.00
2022-09-01T13:44:59.662Z,94.00
2022-09-01T13:47:30.544Z,93.60
2022-09-01T13:50:11.375Z,93.90
2022-09-01T13:52:44.257Z,93.50
2022-09-01T13:55:19.204Z,93.50
2022-09-01T13:57:50.606Z,93.70
2022-09-01T14:00:29.293Z,93.60
2022-09-01T14:03:03.204Z,93.70
2022-09-01T14:05:35.899Z,93.70
2022-09-01T14:08:07.841Z,93.60
2022-09-01T14:10:42.548Z,93.70
2022-09-01T14:13:13.353Z,93.60
2022-09-01T14:15:44.621Z,93.50
2022-09-01T14:18:16.260Z,93.60
2022-09-01T14:20:50.915Z,93.80
2022-09-01T14:23:21.619Z,93.60
2022-09-01T14:25:52.450Z,93.70
2022-09-01T14:28:23.838Z,93.90
2022-09-01T14:33:24.413Z,95.30
2022-09-01T14:35:54.249Z,95.60
2022-09-01T14:38:23.785Z,95.70
2022-09-01T14:40:53.486Z,95.90
2022-09-01T14:43:23.216Z,96.30
2022-09-01T14:46:06.438Z,96.30
2022-09-01T14:48:37.367Z,96.30
2022-09-01T14:51:07.540Z,96.10
2022-09-01T14:53:37.450Z,96.00
2022-09-01T14:56:07.404Z,95.60
2022-09-01T14:58:36.955Z,95.60
2022-09-01T15:01:32.736Z,95.70
2022-09-01T15:03:57.857Z,95.50
2022-09-01T15:06:27.362Z,95.40
2022-09-01T15:08:56.835Z,95.00
2022-09-01T15:11:26.295Z,95.00
2022-09-01T15:13:55.784Z,94.90
2022-09-01T15:16:29.119Z,94.80
2022-09-01T15:18:58.821Z,94.70
2022-09-01T15:21:33.824Z,94.70
2022-09-01T15:24:04.842Z,94.50
2022-09-01T15:26:34.594Z,94.60
2022-09-01T15:29:05.309Z,94.40
2022-09-01T15:31:35.895Z,94.40
2022-09-01T15:34:07.121Z,94.10
2022-09-01T15:36:40.837Z,94.40
2022-09-01T15:39:12.191Z,94.40
2022-09-01T15:41:44.373Z,94.30
2022-09-01T15:44:13.920Z,94.30
2022-09-01T15:46:45.670Z,94.40
2022-09-01T15:49:15.180Z,94.30
2022-09-01T15:51:46.602Z,94.20
2022-09-01T15:54:19.396Z,93.90
2022-09-01T15:56:49.791Z,94.10
2022-09-01T15:59:19.468Z,94.20
2022-09-01T16:01:51.348Z,94.40
2022-09-01T16:04:24.199Z,94.50
2022-09-01T16:06:56.948Z,94.50
2022-09-01T16:09:26.911Z,94.60
2022-09-01T16:11:56.543Z,94.60
2022-09-01T16:14:28.289Z,94.60
2022-09-01T16:17:06.980Z,94.70
2022-09-01T16:19:49.769Z,94.70
2022-09-01T16:22:27.597Z,94.70
2022-09-01T16:25:01.280Z,94.60
2022-09-01T16:27:39.558Z,94.80
2022-09-01T16:30:13.487Z,94.90
2022-09-01T16:32:48.766Z,94.80
2022-09-01T16:35:19.716Z,95.00
2022-09-01T16:38:06.025Z,95.20
2022-09-01T16:40:47.813Z,95.00
2022-09-01T16:43:26.260Z,94.60
2022-09-01T16:46:08.305Z,94.40
2022-09-01T16:48:49.368Z,94.20
2022-09-01T16:51:28.196Z,94.20
2022-09-01T16:54:17.551Z,94.20
2022-09-01T16:56:58.946Z,94.10
2022-09-01T16:59:42.744Z,94.30
2022-09-01T17:02:44.126Z,94.50
2022-09-01T17:05:25.813Z,94.90
2022-09-01T17:08:06.891Z,95.20
2022-09-01T17:10:49.020Z,95.40
2022-09-01T17:13:22.695Z,95.70
2022-09-01T17:16:09.000Z,95.80
2022-09-01T17:18:44.321Z,96.10
2022-09-01T17:21:22.518Z,96.30
2022-09-01T17:23:59.945Z,96.30
2022-09-01T17:26:32.280Z,96.60
2022-09-01T17:29:10.261Z,96.70
2022-09-01T17:31:59.779Z,97.00
2022-09-01T17:34:46.138Z,97.20
2022-09-01T17:37:39.311Z,97.40
2022-09-01T17:40:20.245Z,97.50
2022-09-01T17:43:04.921Z,97.60
2022-09-01T17:45:50.475Z,97.80
2022-09-01T17:48:27.077Z,97.90
2022-09-01T17:51:13.269Z,98.10
2022-09-01T17:53:54.444Z,98.10
2022-09-01T17:56:38.074Z,98.00
2022-09-01T17:59:18.986Z,98.10
2022-09-01T18:02:07.616Z,98.40
2022-09-01T18:05:03.059Z,98.70
2022-09-01T18:08:13.544Z,99.10
2022-09-01T18:10:51.297Z,99.30
2022-09-01T18:13:51.889Z,99.40
2022-09-01T18:16:24.668Z,99.50
2022-09-01T18:18:57.420Z,99.60
2022-09-01T18:21:33.459Z,99.80
2022-09-01T18:24:15.325Z,99.90
2022-09-01T18:26:50.992Z,99.90
2022-09-01T18:29:25.026Z,99.90
2022-09-01T18:32:13.016Z,99.90
2022-09-01T18:35:13.630Z,99.90
2022-09-01T18:38:03.317Z,99.90
2022-09-01T18:40:39.443Z,99.90
2022-09-01T18:43:20.083Z,99.90
2022-09-01T18:45:59.618Z,99.90
2022-09-01T18:48:50.950Z,99.90
2022-09-01T18:51:39.281Z,99.90
2022-09-01T18:54:15.423Z,99.90
2022-09-01T18:56:50.663Z,99.90
2022-09-01T18:59:46.581Z,99.90
2022-09-01T19:02:56.948Z,99.90
2022-09-01T19:05:41.464Z,99.90
2022-09-01T19:08:28.064Z,99.90
2022-09-01T19:11:09.479Z,99.90
2022-09-01T19:13:54.750Z,99.90
2022-09-01T19:16:48.064Z,99.90
2022-09-01T19:19:38.923Z,99.90
2022-09-01T19:22:09.812Z,99.90
2022-09-01T19:24:48.521Z,99.90
2022-09-01T19:27:24.783Z,99.90
2022-09-01T19:29:59.408Z,99.90
2022-09-01T19:32:34.966Z,99.90
2022-09-01T19:35:14.891Z,99.90
2022-09-01T19:37:47.845Z,99.90
2022-09-01T19:40:24.413Z,99.90
2022-09-01T19:43:03.932Z,99.90
2022-09-01T19:45:52.394Z,99.90
2022-09-01T19:48:34.082Z,99.90
2022-09-01T19:51:12.856Z,99.90
2022-09-01T19:53:53.979Z,99.90
2022-09-01T19:56:30.055Z,99.90
2022-09-01T19:59:11.470Z,99.90
2022-09-01T20:01:47.185Z,99.90
2022-09-01T20:04:32.474Z,99.90
2022-09-01T20:07:04.587Z,99.90
2022-09-01T20:09:46.752Z,99.90
2022-09-01T20:12:26.980Z,99.90
2022-09-01T20:15:11.761Z,99.90
2022-09-01T20:17:49.826Z,99.90
2022-09-01T20:20:26.447Z,99.90
2022-09-01T20:23:08.623Z,99.90
2022-09-01T20:25:47.383Z,99.90
2022-09-01T20:28:30.547Z,99.90
2022-09-01T20:31:07.982Z,99.90
2022-09-01T20:33:45.887Z,99.90
2022-09-01T20:36:25.929Z,99.90
2022-09-01T20:39:21.765Z,99.90
2022-09-01T20:41:59.774Z,99.90
2022-09-01T20:44:41.875Z,99.90
2022-09-01T20:47:12.624Z,99.90
2022-09-01T20:49:43.655Z,99.90
2022-09-01T20:52:20.860Z,99.90
2022-09-01T20:54:59.742Z,99.90
2022-09-01T20:57:46.467Z,99.90
2022-09-01T21:00:25.867Z,99.90
2022-09-01T21:03:11.983Z,99.90
2022-09-01T21:05:53.450Z,99.90
2022-09-01T21:08:42.182Z,99.90
2022-09-01T21:11:33.707Z,99.90
2022-09-01T21:14:18.976Z,99.90
2022-09-01T21:17:03.951Z,99.90
2022-09-01T21:19:49.570Z,99.90
2022-09-01T21:22:22.183Z,99.90
2022-09-01T21:24:53.819Z,99.90
2022-09-01T21:27:33.217Z,99.90
2022-09-01T21:30:10.359Z,99.90
2022-09-01T21:32:41.089Z,99.90
2022-09-01T21:35:15.673Z,99.90
2022-09-01T21:37:46.239Z,99.90
2022-09-01T21:40:18.974Z,99.90
2022-09-01T21:42:54.399Z,99.90
2022-09-01T21:45:25.428Z,99.90
2022-09-01T21:47:56.406Z,99.90
2022-09-01T21:50:28.003Z,99.90
2022-09-01T21:52:57.593Z,99.90
2022-09-01T21:55:28.805Z,99.90
2022-09-01T21:57:59.501Z,99.90
2022-09-01T22:00:33.388Z,99.90
2022-09-01T22:03:04.092Z,99.90
2022-09-01T22:05:35.783Z,99.90
2022-09-01T22:08:06.937Z,99.90
2022-09-01T22:10:41.369Z,99.90
2022-09-01T22:13:11.498Z,99.90
2022-09-01T22:15:46.797Z,99.90
2022-09-01T22:18:20.060Z,99.90
2022-09-01T22:20:50.821Z,99.90
2022-09-01T22:23:21.004Z,99.90
2022-09-01T22:25:52.607Z,99.90
2022-09-01T22:28:22.842Z,99.90
2022-09-01T22:30:53.985Z,99.90
2022-09-01T22:33:25.905Z,99.90
2022-09-01T22:35:58.586Z,99.90
2022-09-01T22:38:28.388Z,99.90
2022-09-01T22:41:00.453Z,99.90
2022-09-01T22:43:31.638Z,99.90
2022-09-01T22:46:01.836Z,99.90
2022-09-01T22:48:31.824Z,99.90
2022-09-01T22:51:07.208Z,99.90
2022-09-01T22:53:38.924Z,99.90
2022-09-01T22:56:15.671Z,99.90
2022-09-01T22:58:45.476Z,99.90
2022-09-01T23:01:19.066Z,99.90
2022-09-01T23:03:48.962Z,99.90
2022-09-01T23:06:28.034Z,99.90
2022-09-01T23:09:01.105Z,99.90
2022-09-01T23:11:32.001Z,99.90
2022-09-01T23:14:01.539Z,99.90
2022-09-01T23:16:31.094Z,99.90
2022-09-01T23:19:00.960Z,99.90
2022-09-01T23:21:33.877Z,99.90
2022-09-01T23:24:04.416Z,99.90
2022-09-01T23:26:35.841Z,99.90
2022-09-01T23:29:09.569Z,99.90
2022-09-01T23:31:41.250Z,99.90
2022-09-01T23:34:13.217Z,99.90
2022-09-01T23:36:43.761Z,99.90
2022-09-01T23:39:13.471Z,99.90
2022-09-01T23:41:45.380Z,99.90
2022-09-01T23:44:16.003Z,99.90
2022-09-01T23:46:48.457Z,99.90
2022-09-01T23:49:20.240Z,99.90
2022-09-01T23:51:50.340Z,99.90
2022-09-01T23:54:20.157Z,99.90
2022-09-01T23:56:51.192Z,99.90
2022-09-01T23:59:27.394Z,99.90
